Time;durP1;ratioP1;P1;durP2;ratioP2;P2;SDS_P1;SDS_P2;PMS_P1;PMS_P2;Temp;Humidity;BMP_temperature;BMP_pressure;BME280_temperature;BME280_humidity;BME280_pressure;Samples;Min_cycle;Max_cycle;Signal;HPM_P1;HPM_P2
2022/07/14 00:01:50;;;;;;;16.13;5.05;;;14.00;99.90;;;;;;6184239;23;20428;-79
2022/07/14 00:04:16;;;;;;;14.77;4.47;;;14.00;99.90;;;;;;6210691;23;20394;-79
2022/07/14 00:06:42;;;;;;;18.85;4.68;;;13.90;99.90;;;;;;6159647;23;20759;-79
2022/07/14 00:09:08;;;;;;;10.43;3.28;;;13.90;99.90;;;;;;6207496;23;20519;-78
2022/07/14 00:11:34;;;;;;;8.50;3.22;;;13.80;99.90;;;;;;6209094;23;20024;-78
2022/07/14 00:13:59;;;;;;;10.60;3.85;;;13.80;99.90;;;;;;6210401;23;20016;-80
2022/07/14 00:16:26;;;;;;;11.88;4.15;;;13.80;99.90;;;;;;6209583;23;20349;-78
2022/07/14 00:18:52;;;;;;;20.25;5.30;;;13.80;99.90;;;;;;6184392;23;20023;-78
2022/07/14 00:21:18;;;;;;;15.02;4.07;;;13.70;99.90;;;;;;6184481;23;20043;-78
2022/07/14 00:23:46;;;;;;;15.10;4.43;;;13.70;99.90;;;;;;6185717;23;20103;-78
2022/07/14 00:26:12;;;;;;;13.02;4.68;;;13.70;99.90;;;;;;6185361;23;20449;-78
2022/07/14 00:28:38;;;;;;;10.45;3.95;;;13.70;99.90;;;;;;6181917;23;20012;-78
2022/07/14 00:31:09;;;;;;;11.90;3.42;;;13.60;99.90;;;;;;6208695;23;20020;-78
2022/07/14 00:33:36;;;;;;;12.55;3.80;;;13.60;99.90;;;;;;6209459;23;20080;-78
2022/07/14 00:36:02;;;;;;;11.63;4.20;;;13.60;99.90;;;;;;6183430;23;20016;-78
2022/07/14 00:38:31;;;;;;;13.68;4.40;;;13.60;99.90;;;;;;6186524;23;20024;-78
2022/07/14 00:40:56;;;;;;;15.60;5.28;;;13.60;99.90;;;;;;6185804;23;20074;-78
2022/07/14 00:43:28;;;;;;;16.25;4.95;;;13.50;99.90;;;;;;6184884;23;20024;-77
2022/07/14 00:45:56;;;;;;;16.15;5.50;;;13.50;99.90;;;;;;6184816;23;20020;-78
2022/07/14 00:48:25;;;;;;;13.38;4.88;;;13.40;99.90;;;;;;6210174;23;20349;-78
2022/07/14 00:50:51;;;;;;;11.82;4.97;;;13.40;99.90;;;;;;6184809;23;20102;-78
2022/07/14 00:53:18;;;;;;;15.27;4.53;;;13.30;99.90;;;;;;6210616;23;20472;-78
2022/07/14 00:55:44;;;;;;;12.93;4.70;;;13.30;99.90;;;;;;6186131;23;20478;-78
2022/07/14 00:58:11;;;;;;;16.38;4.90;;;13.20;99.90;;;;;;6183744;23;20023;-78
2022/07/14 01:00:37;;;;;;;12.90;3.65;;;13.20;99.90;;;;;;6208846;23;20051;-78
2022/07/14 01:03:05;;;;;;;9.43;3.55;;;13.20;99.90;;;;;;6160050;23;20488;-78
2022/07/14 01:05:34;;;;;;;14.18;4.40;;;13.20;99.90;;;;;;6184183;23;20157;-78
2022/07/14 01:08:00;;;;;;;16.02;4.93;;;13.20;99.90;;;;;;6207102;23;20077;-78
2022/07/14 01:10:35;;;;;;;13.82;4.57;;;13.20;99.90;;;;;;6181957;23;20063;-78
2022/07/14 01:13:04;;;;;;;16.50;5.70;;;13.10;99.90;;;;;;6184060;23;20099;-78
2022/07/14 01:15:30;;;;;;;11.20;4.40;;;13.10;99.90;;;;;;6184173;23;20562;-78
2022/07/14 01:17:56;;;;;;;12.38;4.63;;;13.00;99.90;;;;;;6185560;23;20023;-78
2022/07/14 01:20:25;;;;;;;10.57;3.75;;;13.00;99.90;;;;;;6156274;23;20396;-78
2022/07/14 01:22:52;;;;;;;9.60;3.47;;;13.00;99.90;;;;;;6184274;23;20020;-78
2022/07/14 01:25:20;;;;;;;10.47;3.47;;;12.90;99.90;;;;;;6159714;23;20107;-77
2022/07/14 01:27:47;;;;;;;15.07;5.00;;;13.00;99.90;;;;;;6184170;23;20074;-77
2022/07/14 01:30:13;;;;;;;13.80;5.68;;;13.00;99.90;;;;;;6184282;23;20024;-77
2022/07/14 01:32:39;;;;;;;14.30;5.35;;;13.00;99.90;;;;;;6209583;23;20100;-77
2022/07/14 01:35:06;;;;;;;16.88;6.30;;;12.90;99.90;;;;;;6156834;23;20537;-77
2022/07/14 01:37:35;;;;;;;9.45;3.80;;;12.80;99.90;;;;;;6210240;23;20042;-77
2022/07/14 01:40:01;;;;;;;8.68;3.50;;;12.80;99.90;;;;;;6178113;23;20065;-77
2022/07/14 01:42:27;;;;;;;10.88;4.00;;;12.80;99.90;;;;;;6156960;23;20452;-77
2022/07/14 01:44:53;;;;;;;11.90;4.82;;;12.90;99.90;;;;;;6183633;23;20118;-77
2022/07/14 01:47:19;;;;;;;13.10;4.80;;;12.90;99.90;;;;;;6184642;23;20345;-77
2022/07/14 01:49:45;;;;;;;15.52;5.70;;;12.90;99.90;;;;;;6181890;23;20323;-77
2022/07/14 01:52:12;;;;;;;18.63;6.30;;;12.80;99.90;;;;;;6180912;23;20019;-77
2022/07/14 01:54:38;;;;;;;18.48;6.40;;;12.80;99.90;;;;;;6208306;23;20016;-77
2022/07/14 01:57:06;;;;;;;18.70;6.32;;;12.70;99.90;;;;;;6183481;23;20071;-77
2022/07/14 01:59:32;;;;;;;11.35;3.90;;;12.60;99.90;;;;;;6183929;23;20420;-77
2022/07/14 02:01:58;;;;;;;8.35;4.00;;;12.50;99.90;;;;;;6203162;23;20020;-77
2022/07/14 02:04:24;;;;;;;8.18;3.95;;;12.50;99.90;;;;;;6206992;23;20017;-77
2022/07/14 02:06:53;;;;;;;17.08;5.45;;;12.60;99.90;;;;;;6182218;23;20024;-77
2022/07/14 02:09:20;;;;;;;13.87;5.07;;;12.50;99.90;;;;;;6180636;23;20020;-77
2022/07/14 02:14:34;;;;;;;12.70;4.10;;;12.40;99.90;;;;;;6208157;23;20024;-77
2022/07/14 02:17:00;;;;;;;8.02;3.58;;;12.40;99.90;;;;;;6210555;23;20013;-77
2022/07/14 02:19:26;;;;;;;16.23;5.45;;;12.40;99.90;;;;;;6182311;23;20027;-77
2022/07/14 02:21:54;;;;;;;9.82;3.58;;;12.40;99.90;;;;;;6185138;23;20016;-77
2022/07/14 02:24:21;;;;;;;9.73;3.35;;;12.40;99.90;;;;;;6201461;23;20023;-77
2022/07/14 02:26:50;;;;;;;8.80;3.40;;;12.40;99.90;;;;;;6180477;23;20024;-77
2022/07/14 02:29:16;;;;;;;7.47;3.38;;;12.40;99.90;;;;;;6201706;23;20048;-77
2022/07/14 02:31:44;;;;;;;8.55;4.03;;;12.30;99.90;;;;;;6179345;23;20031;-77
2022/07/14 02:34:14;;;;;;;9.10;3.38;;;12.30;99.90;;;;;;6180684;23;20078;-77
2022/07/14 02:36:43;;;;;;;9.35;3.63;;;12.30;99.90;;;;;;6179301;23;20021;-77
2022/07/14 02:39:09;;;;;;;7.22;3.17;;;12.20;99.90;;;;;;6176360;23;20338;-77
2022/07/14 02:41:35;;;;;;;6.70;3.28;;;12.20;99.90;;;;;;6205088;23;20023;-77
2022/07/14 02:44:01;;;;;;;7.72;3.15;;;12.20;99.90;;;;;;6204069;23;20335;-77
2022/07/14 02:46:27;;;;;;;8.60;3.67;;;12.20;99.90;;;;;;6176986;23;20087;-77
2022/07/14 02:48:55;;;;;;;8.68;3.50;;;12.10;99.90;;;;;;6178956;23;20016;-77
2022/07/14 02:51:21;;;;;;;25.48;6.85;;;12.10;99.90;;;;;;6178873;23;20349;-77
2022/07/14 02:53:47;;;;;;;12.05;5.15;;;12.10;99.90;;;;;;6176591;23;20099;-77
2022/07/14 02:56:13;;;;;;;57.70;10.65;;;12.00;99.90;;;;;;6180238;23;20024;-77
2022/07/14 02:58:39;;;;;;;21.17;8.05;;;12.00;99.90;;;;;;6178974;23;20360;-77
2022/07/14 03:01:27;;;;;;;14.52;7.05;;;11.90;99.90;;;;;;6204189;23;20020;-77
2022/07/14 03:03:55;;;;;;;7.63;4.05;;;11.80;99.90;;;;;;6178426;23;20017;-77
2022/07/14 03:06:25;;;;;;;11.95;4.50;;;11.80;99.90;;;;;;6178598;23;20025;-77
2022/07/14 03:08:51;;;;;;;6.25;2.80;;;11.70;99.90;;;;;;6180696;23;20140;-77
2022/07/14 03:11:17;;;;;;;7.07;3.65;;;11.70;99.90;;;;;;6179784;23;20052;-77
2022/07/14 03:13:43;;;;;;;17.33;5.30;;;11.70;99.90;;;;;;6180823;23;20020;-77
2022/07/14 03:16:09;;;;;;;16.42;5.22;;;11.70;99.90;;;;;;6155751;23;20020;-78
2022/07/14 03:18:39;;;;;;;32.72;8.63;;;11.60;99.90;;;;;;6180805;23;20421;-77
2022/07/14 03:21:12;;;;;;;9.15;3.50;;;11.60;99.90;;;;;;6180772;23;20021;-77
2022/07/14 03:23:38;;;;;;;7.82;3.10;;;11.50;99.90;;;;;;6179360;23;20021;-77
2022/07/14 03:26:04;;;;;;;15.75;5.20;;;11.40;99.90;;;;;;6181077;23;20029;-78
2022/07/14 03:28:31;;;;;;;14.20;5.28;;;11.40;99.90;;;;;;6180056;23;20088;-78
2022/07/14 03:30:57;;;;;;;14.38;6.40;;;11.40;99.90;;;;;;6155901;23;20297;-78
2022/07/14 03:33:24;;;;;;;20.25;8.93;;;11.30;99.90;;;;;;6179503;23;20606;-78
2022/07/14 03:35:50;;;;;;;6.38;3.90;;;11.30;99.90;;;;;;6182682;23;20051;-78
2022/07/14 03:38:17;;;;;;;12.52;4.95;;;11.30;99.90;;;;;;6204683;23;20099;-78
2022/07/14 03:40:43;;;;;;;8.85;4.35;;;11.20;99.90;;;;;;6204746;23;20631;-78
2022/07/14 03:43:08;;;;;;;5.88;3.70;;;11.30;99.90;;;;;;6180261;23;20020;-78
2022/07/14 03:45:38;;;;;;;7.82;4.53;;;11.30;99.90;;;;;;6206008;23;20458;-78
2022/07/14 03:48:08;;;;;;;5.10;3.50;;;11.40;99.90;;;;;;6156967;23;20354;-78
2022/07/14 03:50:37;;;;;;;20.75;5.10;;;11.30;99.90;;;;;;6154908;23;20021;-78
2022/07/14 03:53:04;;;;;;;7.18;3.60;;;11.40;99.90;;;;;;6180007;23;20351;-77
2022/07/14 03:55:31;;;;;;;16.08;7.38;;;11.40;99.90;;;;;;6205520;23;20111;-77
2022/07/14 03:57:59;;;;;;;18.40;8.38;;;11.40;99.90;;;;;;6181796;23;20076;-77
2022/07/14 04:00:28;;;;;;;7.53;5.05;;;11.30;99.90;;;;;;6154740;23;20051;-78
2022/07/14 04:02:54;;;;;;;18.00;9.57;;;11.30;99.90;;;;;;6178533;23;20342;-78
2022/07/14 04:05:23;;;;;;;12.45;6.60;;;11.30;99.90;;;;;;6182286;23;20027;-77
2022/07/14 04:07:49;;;;;;;11.88;6.72;;;11.20;99.90;;;;;;6179632;23;20024;-77
2022/07/14 04:10:15;;;;;;;7.78;4.25;;;11.20;99.90;;;;;;6181162;23;20047;-77
2022/07/14 04:12:44;;;;;;;7.63;4.13;;;11.30;99.90;;;;;;6178484;23;20021;-77
2022/07/14 04:15:10;;;;;;;6.40;4.07;;;11.30;99.90;;;;;;6206242;23;20055;-78
2022/07/14 04:17:39;;;;;;;8.07;4.85;;;11.40;99.90;;;;;;6206233;23;20020;-77
2022/07/14 04:20:05;;;;;;;6.97;4.07;;;11.50;99.90;;;;;;6155549;23;20024;-77
2022/07/14 04:22:31;;;;;;;6.65;4.38;;;11.50;99.90;;;;;;6181505;23;20017;-77
2022/07/14 04:24:57;;;;;;;8.38;4.50;;;11.50;99.90;;;;;;6177566;23;20039;-77
2022/07/14 04:27:26;;;;;;;9.30;5.32;;;11.50;99.90;;;;;;6156212;23;20021;-77
2022/07/14 04:29:51;;;;;;;7.35;4.32;;;11.50;99.90;;;;;;6179870;23;20016;-77
2022/07/14 04:32:18;;;;;;;12.40;5.28;;;11.50;99.90;;;;;;6181422;23;20021;-77
2022/07/14 04:34:44;;;;;;;13.25;7.68;;;11.50;99.90;;;;;;6204214;23;20016;-78
2022/07/14 04:37:28;;;;;;;9.50;5.07;;;11.50;99.90;;;;;;6156482;23;20020;-78
2022/07/14 04:39:54;;;;;;;7.38;4.70;;;11.50;99.90;;;;;;6178297;23;20466;-78
2022/07/14 04:42:24;;;;;;;8.85;5.30;;;11.60;99.90;;;;;;6206221;23;20024;-79
2022/07/14 04:44:51;;;;;;;10.65;5.15;;;11.70;99.90;;;;;;6178768;23;20024;-78
2022/07/14 04:47:17;;;;;;;7.90;5.35;;;11.70;99.90;;;;;;6180999;23;20188;-78
2022/07/14 04:52:27;;;;;;;10.13;5.82;;;11.90;99.90;;;;;;6183386;23;20024;-78
2022/07/14 04:54:56;;;;;;;9.82;6.13;;;11.90;99.90;;;;;;6207715;23;20031;-78
2022/07/14 04:57:25;;;;;;;8.25;5.43;;;12.00;99.90;;;;;;6205204;23;20083;-78
2022/07/14 04:59:51;;;;;;;10.00;5.90;;;12.00;99.90;;;;;;6181498;23;20074;-78
2022/07/14 05:02:17;;;;;;;8.85;5.20;;;12.10;99.90;;;;;;6178782;23;20039;-78
2022/07/14 05:04:42;;;;;;;8.85;5.00;;;12.20;99.90;;;;;;6179680;23;20020;-78
2022/07/14 05:07:08;;;;;;;12.30;7.68;;;12.20;99.90;;;;;;6203823;23;20335;-78
2022/07/14 05:09:34;;;;;;;13.07;5.95;;;12.30;99.90;;;;;;6203021;23;20461;-78
2022/07/14 05:12:03;;;;;;;10.18;6.32;;;12.40;99.90;;;;;;6154788;23;20361;-79
2022/07/14 05:14:29;;;;;;;12.18;6.18;;;12.50;99.90;;;;;;6181239;23;20017;-76
2022/07/14 05:16:55;;;;;;;11.82;5.95;;;12.50;99.90;;;;;;6178838;23;20070;-77
2022/07/14 05:19:24;;;;;;;11.38;6.35;;;12.60;99.90;;;;;;6155739;23;20024;-77
2022/07/14 05:21:52;;;;;;;11.93;6.55;;;12.60;99.90;;;;;;6203358;23;20025;-77
2022/07/14 05:24:20;;;;;;;9.38;5.75;;;12.70;99.90;;;;;;6155258;23;20024;-77
2022/07/14 05:26:46;;;;;;;11.70;6.82;;;12.70;99.90;;;;;;6130240;23;20059;-77
2022/07/14 05:29:30;;;;;;;11.10;6.00;;;12.70;99.90;;;;;;5107502;27;20967;-79
2022/07/14 05:31:57;;;;;;;9.77;5.82;;;12.80;99.90;;;;;;5083241;28;20044;-79
2022/07/14 05:34:23;;;;;;;11.80;6.40;;;12.90;99.90;;;;;;5048893;28;20047;-78
2022/07/14 05:36:49;;;;;;;13.30;5.95;;;12.90;99.90;;;;;;5048718;28;20052;-79
2022/07/14 05:39:15;;;;;;;13.23;5.70;;;13.00;99.90;;;;;;5075770;28;20051;-79
2022/07/14 05:41:41;;;;;;;10.80;5.07;;;13.10;99.90;;;;;;5059222;28;20040;-79
2022/07/14 05:44:07;;;;;;;14.25;6.53;;;13.10;99.90;;;;;;5048926;28;20044;-79
2022/07/14 05:46:33;;;;;;;11.75;6.35;;;13.20;99.90;;;;;;5059277;28;20406;-79
2022/07/14 05:48:59;;;;;;;8.60;4.57;;;13.30;99.90;;;;;;5057335;28;20043;-79
2022/07/14 05:51:25;;;;;;;11.13;5.03;;;13.30;99.90;;;;;;5075942;28;20454;-79
2022/07/14 05:53:51;;;;;;;11.25;4.80;;;13.50;99.90;;;;;;5063618;28;20050;-80
2022/07/14 05:56:17;;;;;;;12.38;4.80;;;13.60;99.90;;;;;;5079911;28;20055;-80
2022/07/14 05:58:44;;;;;;;13.05;3.72;;;13.60;99.90;;;;;;5043615;28;20071;-80
2022/07/14 06:01:10;;;;;;;10.35;3.50;;;13.70;99.90;;;;;;5082837;28;20047;-80
2022/07/14 06:03:36;;;;;;;8.43;3.25;;;13.80;99.90;;;;;;5057665;28;20044;-80
2022/07/14 06:06:04;;;;;;;8.55;3.25;;;13.90;99.90;;;;;;5063100;28;20078;-80
2022/07/14 06:08:30;;;;;;;6.80;2.50;;;14.00;99.90;;;;;;5061219;28;20044;-80
2022/07/14 06:10:56;;;;;;;7.47;3.00;;;14.10;99.90;;;;;;5078125;28;20464;-75
2022/07/14 06:13:24;;;;;;;10.60;2.78;;;14.20;99.90;;;;;;5058350;28;20102;-76
2022/07/14 06:15:50;;;;;;;6.90;2.33;;;14.20;99.90;;;;;;5043362;28;20050;-76
2022/07/14 06:18:16;;;;;;;10.77;2.80;;;14.40;99.90;;;;;;5044659;28;20048;-75
2022/07/14 06:20:42;;;;;;;8.05;2.70;;;14.40;99.90;;;;;;5076419;28;20483;-76
2022/07/14 06:23:11;;;;;;;8.77;2.85;;;14.50;99.90;;;;;;5076764;28;20047;-76
2022/07/14 06:25:38;;;;;;;8.73;2.03;;;14.60;99.90;;;;;;5046307;28;20472;-78
2022/07/14 06:28:04;;;;;;;5.03;2.00;;;14.70;99.90;;;;;;5029277;28;20134;-78
2022/07/14 06:30:30;;;;;;;7.35;2.00;;;14.80;99.90;;;;;;5081862;28;20052;-84
2022/07/14 06:32:57;;;;;;;7.18;1.60;;;14.90;99.90;;;;;;5081422;28;20926;-85
2022/07/14 06:35:26;;;;;;;9.98;2.05;;;15.00;99.90;;;;;;5060383;28;20063;-85
2022/07/14 06:37:55;;;;;;;5.97;1.60;;;15.10;99.90;;;;;;5065049;28;20173;-85
2022/07/14 06:40:21;;;;;;;6.78;2.05;;;15.20;99.90;;;;;;5054697;28;20503;-85
2022/07/14 06:42:47;;;;;;;8.00;2.30;;;15.30;99.90;;;;;;5050013;28;20050;-85
2022/07/14 06:45:13;;;;;;;4.50;1.30;;;15.40;99.90;;;;;;5069342;28;20059;-84
2022/07/14 06:47:39;;;;;;;7.50;1.90;;;15.50;99.90;;;;;;5055785;28;20044;-85
2022/07/14 06:50:06;;;;;;;7.05;1.88;;;15.60;99.90;;;;;;5050081;28;20073;-85
2022/07/14 06:52:32;;;;;;;7.25;1.67;;;15.80;99.90;;;;;;5065733;28;20505;-84
2022/07/14 06:54:59;;;;;;;6.40;2.05;;;15.90;99.90;;;;;;5032858;28;20041;-85
2022/07/14 06:57:25;;;;;;;6.00;1.60;;;16.00;99.90;;;;;;5032721;28;20036;-85
2022/07/14 06:59:51;;;;;;;6.53;1.40;;;16.10;99.90;;;;;;5031784;28;20073;-86
2022/07/14 07:02:19;;;;;;;7.30;1.35;;;16.30;99.90;;;;;;5051866;28;20083;-86
2022/07/14 07:04:47;;;;;;;7.05;1.10;;;16.40;99.90;;;;;;5061737;28;20036;-87
2022/07/14 07:07:13;;;;;;;7.65;1.40;;;16.40;99.90;;;;;;5067339;28;20051;-85
2022/07/14 07:09:39;;;;;;;6.22;1.42;;;16.50;99.90;;;;;;5052912;28;20590;-86
2022/07/14 07:12:05;;;;;;;4.90;1.25;;;16.50;99.90;;;;;;5021060;28;20068;-87
2022/07/14 07:14:31;;;;;;;5.90;1.25;;;16.50;99.90;;;;;;5032306;28;20060;-86
2022/07/14 07:16:56;;;;;;;8.02;1.83;;;16.60;99.90;;;;;;5053944;28;20499;-84
2022/07/14 07:19:23;;;;;;;8.00;1.30;;;16.60;99.90;;;;;;5024441;28;20036;-83
2022/07/14 07:21:49;;;;;;;6.25;1.60;;;16.60;99.90;;;;;;5031905;28;21829;-87
2022/07/14 07:24:15;;;;;;;7.40;1.20;;;16.60;99.90;;;;;;5038889;28;20066;-86
2022/07/14 07:26:41;;;;;;;7.68;1.42;;;16.80;99.90;;;;;;5033753;28;20496;-86
2022/07/14 07:29:07;;;;;;;6.60;1.30;;;16.90;99.90;;;;;;5035298;28;20040;-87
2022/07/14 07:31:34;;;;;;;8.50;1.55;;;17.10;99.90;;;;;;5044878;28;20043;-85
2022/07/14 07:34:00;;;;;;;5.80;1.08;;;17.10;99.90;;;;;;5048015;28;20391;-84
2022/07/14 07:36:26;;;;;;;6.25;1.77;;;17.00;99.90;;;;;;5060226;28;20086;-83
2022/07/14 07:38:52;;;;;;;5.28;0.93;;;17.10;99.90;;;;;;5030298;28;20052;-83
2022/07/14 07:41:22;;;;;;;8.15;1.48;;;17.20;99.90;;;;;;5060528;28;20132;-83
2022/07/14 07:43:49;;;;;;;7.60;1.92;;;17.60;99.90;;;;;;5042988;28;20043;-84
2022/07/14 07:46:14;;;;;;;3.92;1.10;;;17.70;99.90;;;;;;5028767;28;20048;-86
2022/07/14 07:48:40;;;;;;;7.70;1.50;;;17.70;99.90;;;;;;5042493;28;20041;-85
2022/07/14 07:51:07;;;;;;;9.93;1.73;;;17.70;99.90;;;;;;5031447;28;20045;-86
2022/07/14 07:53:36;;;;;;;7.68;1.38;;;17.70;99.90;;;;;;5046742;28;20059;-85
2022/07/14 07:56:02;;;;;;;8.43;1.42;;;17.90;99.90;;;;;;5061572;28;20159;-86
2022/07/14 07:58:28;;;;;;;5.90;1.33;;;18.10;99.90;;;;;;5051223;28;20040;-79
2022/07/14 08:00:54;;;;;;;6.18;0.85;;;18.40;99.90;;;;;;5030773;28;20033;-80
2022/07/14 08:03:20;;;;;;;4.35;0.85;;;18.70;99.90;;;;;;5048083;28;20052;-80
2022/07/14 08:05:48;;;;;;;5.82;1.40;;;18.90;99.90;;;;;;5041707;28;20044;-78
2022/07/14 08:08:14;;;;;;;3.88;0.90;;;19.10;99.90;;;;;;5014947;28;20039;-80
2022/07/14 08:10:43;;;;;;;3.85;1.00;;;19.10;99.90;;;;;;5044481;28;20032;-78
2022/07/14 08:13:10;;;;;;;5.55;0.80;;;19.30;99.90;;;;;;5012407;28;20044;-79
2022/07/14 08:15:37;;;;;;;3.38;1.00;;;19.50;99.90;;;;;;5064713;28;20056;-79
2022/07/14 08:18:03;;;;;;;8.18;1.13;;;19.60;99.90;;;;;;5040847;28;20052;-78
2022/07/14 08:20:29;;;;;;;4.82;0.88;;;19.80;99.90;;;;;;5040925;28;20044;-78
2022/07/14 08:22:55;;;;;;;4.40;1.13;;;19.90;99.90;;;;;;5044394;28;20044;-79
2022/07/14 08:25:22;;;;;;;4.65;0.90;;;19.90;99.90;;;;;;5027668;28;20098;-85
2022/07/14 08:27:57;;;;;;;3.95;0.60;;;19.90;99.90;;;;;;5013039;28;20127;-86
2022/07/14 08:30:31;;;;;;;4.80;0.60;;;19.70;99.90;;;;;;5043870;28;20524;-84
2022/07/14 08:33:00;;;;;;;4.55;0.80;;;19.60;99.90;;;;;;5039641;28;20574;-79
2022/07/14 08:35:35;;;;;;;3.70;0.70;;;19.70;99.90;;;;;;5020161;28;20057;-79
2022/07/14 08:38:01;;;;;;;3.17;0.68;;;19.80;99.90;;;;;;5010476;28;20040;-79
2022/07/14 08:40:30;;;;;;;3.42;0.77;;;19.80;99.90;;;;;;5061476;28;20141;-78
2022/07/14 08:42:56;;;;;;;1.30;0.43;;;20.00;99.90;;;;;;5047672;28;20388;-84
2022/07/14 08:45:24;;;;;;;4.22;0.50;;;20.10;99.90;;;;;;5052186;28;20554;-83
2022/07/14 08:47:51;;;;;;;2.72;0.60;;;20.30;99.90;;;;;;5047038;28;20039;-85
2022/07/14 08:50:19;;;;;;;4.88;0.80;;;20.40;99.90;;;;;;5046269;28;20058;-84
2022/07/14 08:52:46;;;;;;;5.35;0.65;;;20.50;99.90;;;;;;5054923;28;20139;-80
2022/07/14 08:55:17;;;;;;;3.50;0.70;;;20.50;99.90;;;;;;5046855;28;20036;-78
2022/07/14 08:57:42;;;;;;;2.25;0.60;;;20.40;99.90;;;;;;5014366;28;20095;-78
2022/07/14 09:00:14;;;;;;;3.38;0.80;;;20.30;99.90;;;;;;5020955;28;20542;-84
2022/07/14 09:02:46;;;;;;;3.63;0.70;;;20.30;99.90;;;;;;5046487;28;20434;-83
2022/07/14 09:05:13;;;;;;;2.67;0.60;;;20.40;99.90;;;;;;5061740;28;20162;-84
2022/07/14 09:07:39;;;;;;;4.38;0.65;;;20.40;99.90;;;;;;5026339;28;20036;-85
2022/07/14 09:10:13;;;;;;;5.55;0.80;;;20.30;99.90;;;;;;5033876;28;20059;-83
2022/07/14 09:12:41;;;;;;;3.00;0.60;;;20.30;99.90;;;;;;5056813;28;20055;-84
2022/07/14 09:17:56;;;;;;;3.92;0.60;;;20.20;98.20;;;;;;5054853;28;20041;-85
2022/07/14 09:20:24;;;;;;;4.95;0.90;;;20.10;98.60;;;;;;5044310;28;20045;-78
2022/07/14 09:22:55;;;;;;;4.32;0.50;;;20.10;99.90;;;;;;5045598;28;20085;-78
2022/07/14 09:25:26;;;;;;;3.22;0.85;;;20.20;99.90;;;;;;5058191;28;20155;-79
2022/07/14 09:27:52;;;;;;;;;;;20.30;99.90;;;;;;5041491;28;21481;-86
2022/07/14 09:30:18;;;;;;;2.78;0.50;;;20.40;99.90;;;;;;5038530;28;20186;-84
2022/07/14 09:32:48;;;;;;;4.80;1.00;;;20.50;99.90;;;;;;5040906;28;20633;-84
2022/07/14 09:35:23;;;;;;;4.85;0.98;;;20.60;99.90;;;;;;5044711;28;20040;-85
2022/07/14 09:37:54;;;;;;;5.47;0.70;;;20.50;99.90;;;;;;5051705;28;20156;-84
2022/07/14 09:40:25;;;;;;;6.22;1.48;;;20.50;99.90;;;;;;5037260;28;20040;-84
2022/07/14 09:42:58;;;;;;;3.85;0.80;;;20.40;99.90;;;;;;5035988;28;20131;-78
2022/07/14 09:45:27;;;;;;;2.75;0.60;;;20.30;99.90;;;;;;5038526;28;20232;-78
2022/07/14 09:48:07;;;;;;;5.40;0.85;;;20.30;99.90;;;;;;5041128;28;20431;-78
2022/07/14 09:50:42;;;;;;;3.55;0.80;;;20.40;99.90;;;;;;5021096;28;20141;-78
2022/07/14 09:53:28;;;;;;;4.03;0.77;;;20.50;99.90;;;;;;5050731;28;20051;-78
2022/07/14 09:55:54;;;;;;;3.00;0.50;;;20.60;99.90;;;;;;5035443;28;20139;-78
2022/07/14 09:58:21;;;;;;;2.45;0.60;;;20.60;99.90;;;;;;5035761;28;20369;-78
2022/07/14 10:01:15;;;;;;;3.45;0.60;;;20.60;99.90;;;;;;5040085;28;20495;-78
2022/07/14 10:03:44;;;;;;;2.53;0.60;;;20.50;99.90;;;;;;5037533;28;20056;-77
2022/07/14 10:06:11;;;;;;;3.53;0.82;;;20.50;99.90;;;;;;5021553;28;20037;-78
2022/07/14 10:08:43;;;;;;;3.92;0.75;;;20.30;99.90;;;;;;5037252;28;20473;-78
2022/07/14 10:11:10;;;;;;;3.72;0.50;;;20.30;99.90;;;;;;5039650;28;20044;-77
2022/07/14 10:13:37;;;;;;;4.53;0.80;;;20.20;99.90;;;;;;5019898;28;20057;-78
2022/07/14 10:16:04;;;;;;;1.55;0.60;;;20.20;99.90;;;;;;5029910;28;20032;-78
2022/07/14 10:18:31;;;;;;;2.80;0.80;;;20.20;99.90;;;;;;5045930;28;20048;-77
2022/07/14 10:20:59;;;;;;;2.33;0.50;;;20.20;99.90;;;;;;5029021;28;20052;-78
2022/07/14 10:23:27;;;;;;;3.63;0.70;;;20.30;99.90;;;;;;5058597;28;20091;-78
2022/07/14 10:25:58;;;;;;;5.88;0.95;;;20.30;99.90;;;;;;5044393;28;20376;-78
2022/07/14 10:28:26;;;;;;;1.70;0.50;;;20.40;99.90;;;;;;5049827;28;20140;-79
2022/07/14 10:31:32;;;;;;;3.28;0.77;;;20.40;99.90;;;;;;5049086;28;20044;-78
2022/07/14 10:34:38;;;;;;;3.28;0.57;;;20.40;99.90;;;;;;5040957;28;20037;-78
2022/07/14 10:37:22;;;;;;;4.57;0.93;;;20.50;99.90;;;;;;5061124;28;20105;-85
2022/07/14 10:40:12;;;;;;;3.65;0.60;;;20.50;99.90;;;;;;5063809;28;20241;-84
2022/07/14 10:43:05;;;;;;;1.88;0.50;;;20.60;99.90;;;;;;5046195;28;20049;-84
2022/07/14 10:45:32;;;;;;;3.38;0.60;;;20.60;99.90;;;;;;5061777;28;20420;-77
2022/07/14 10:47:58;;;;;;;3.75;0.82;;;20.60;99.90;;;;;;5039645;28;20036;-78
2022/07/14 10:50:25;;;;;;;2.90;0.60;;;20.70;99.90;;;;;;5040958;28;20052;-77
2022/07/14 10:52:54;;;;;;;2.97;0.45;;;20.80;99.90;;;;;;5055234;28;20553;-75
2022/07/14 10:55:29;;;;;;;1.98;0.52;;;20.90;99.90;;;;;;5040361;28;20041;-74
2022/07/14 10:58:07;;;;;;;2.85;0.60;;;20.90;99.90;;;;;;5050104;28;20036;-75
2022/07/14 11:00:42;;;;;;;3.72;0.65;;;21.00;99.90;;;;;;5041734;28;20052;-74
2022/07/14 11:03:30;;;;;;;5.32;0.75;;;21.00;99.90;;;;;;5034371;28;20380;-75
2022/07/14 11:06:08;;;;;;;3.65;0.52;;;21.00;99.90;;;;;;5070598;28;20504;-75
2022/07/14 11:08:40;;;;;;;4.30;0.45;;;21.00;99.90;;;;;;5039220;28;20431;-75
2022/07/14 11:11:16;;;;;;;2.55;0.57;;;21.00;99.90;;;;;;5017768;28;20044;-75
2022/07/14 11:14:00;;;;;;;4.75;0.65;;;20.90;99.90;;;;;;5039491;28;20040;-75
2022/07/14 11:16:45;;;;;;;3.72;0.77;;;20.80;99.90;;;;;;5047715;28;20045;-75
2022/07/14 11:19:32;;;;;;;4.07;0.60;;;20.80;99.90;;;;;;5060260;28;20127;-75
2022/07/14 11:22:19;;;;;;;2.05;0.63;;;20.70;99.90;;;;;;5043755;28;20072;-75
2022/07/14 11:24:55;;;;;;;3.33;0.60;;;20.80;99.90;;;;;;5022839;28;20044;-75
2022/07/14 11:27:27;;;;;;;2.95;0.57;;;20.90;99.90;;;;;;5074081;28;20542;-75
2022/07/14 11:29:58;;;;;;;4.15;0.77;;;20.80;99.90;;;;;;5070451;28;20060;-75
2022/07/14 11:32:42;;;;;;;3.22;0.80;;;20.70;99.90;;;;;;5037943;28;20052;-74
2022/07/14 11:38:01;;;;;;;2.40;0.45;;;20.70;99.90;;;;;;5056856;28;20041;-75
2022/07/14 11:40:43;;;;;;;2.22;0.70;;;20.80;99.90;;;;;;5056798;28;20047;-74
2022/07/14 11:43:31;;;;;;;3.30;1.00;;;20.90;99.90;;;;;;5044733;28;20107;-75
2022/07/14 11:46:04;;;;;;;2.90;0.57;;;21.00;99.90;;;;;;5058491;28;20051;-75
2022/07/14 11:48:31;;;;;;;5.57;0.52;;;21.00;99.90;;;;;;5051070;28;20036;-74
2022/07/14 11:51:25;;;;;;;4.25;0.77;;;21.00;99.90;;;;;;5051547;28;20047;-74
2022/07/14 11:53:59;;;;;;;3.22;0.80;;;21.00;99.90;;;;;;5042172;28;20059;-75
2022/07/14 11:56:27;;;;;;;2.58;0.50;;;21.00;99.90;;;;;;5058974;28;20040;-77
2022/07/14 11:59:03;;;;;;;2.17;0.65;;;21.00;99.90;;;;;;5055166;28;20048;-75
2022/07/14 12:01:42;;;;;;;3.35;0.60;;;21.10;99.90;;;;;;5040087;28;20523;-75
2022/07/14 12:04:19;;;;;;;3.20;0.88;;;21.30;99.90;;;;;;5042016;28;20044;-74
2022/07/14 12:06:47;;;;;;;5.45;1.08;;;21.50;99.90;;;;;;5058247;28;20041;-77
2022/07/14 12:09:16;;;;;;;3.55;0.85;;;21.70;99.90;;;;;;5043805;28;20332;-74
2022/07/14 12:11:55;;;;;;;4.45;1.08;;;21.80;99.90;;;;;;5043352;28;20052;-75
2022/07/14 12:14:24;;;;;;;3.03;0.80;;;21.70;97.70;;;;;;5046066;28;20064;-75
2022/07/14 12:16:50;;;;;;;2.03;0.50;;;21.60;99.90;;;;;;5044980;28;20056;-75
2022/07/14 12:19:30;;;;;;;1.92;0.50;;;21.60;99.90;;;;;;5029909;28;20047;-76
2022/07/14 12:22:04;;;;;;;2.47;0.90;;;21.70;99.70;;;;;;5060108;28;20407;-75
2022/07/14 12:24:31;;;;;;;4.78;0.63;;;21.70;99.90;;;;;;5061815;28;20052;-75
2022/07/14 12:27:09;;;;;;;2.55;0.50;;;21.80;99.70;;;;;;5058791;28;20470;-75
2022/07/14 12:29:44;;;;;;;5.20;0.88;;;21.80;98.50;;;;;;5056073;28;20048;-75
2022/07/14 12:32:10;;;;;;;4.97;0.70;;;21.80;98.20;;;;;;5059789;28;20044;-75
2022/07/14 12:34:38;;;;;;;3.10;0.88;;;22.00;99.90;;;;;;5055866;28;20487;-74
2022/07/14 12:37:04;;;;;;;5.10;0.75;;;22.20;99.90;;;;;;5039942;28;20040;-74
2022/07/14 12:39:31;;;;;;;3.53;0.70;;;22.60;99.90;;;;;;5056783;28;20048;-75
2022/07/14 12:42:03;;;;;;;2.40;0.80;;;22.80;98.80;;;;;;5043025;28;20094;-75
2022/07/14 12:44:31;;;;;;;2.33;0.50;;;23.10;96.90;;;;;;5059637;28;20636;-74
2022/07/14 12:47:17;;;;;;;3.40;0.70;;;23.30;98.80;;;;;;5043219;28;20144;-74
2022/07/14 12:49:48;;;;;;;2.33;0.60;;;23.70;93.40;;;;;;5059818;28;20056;-78
2022/07/14 12:52:15;;;;;;;3.60;0.80;;;23.90;92.50;;;;;;5020822;28;20527;-75
2022/07/14 12:54:42;;;;;;;3.28;0.70;;;23.90;83.80;;;;;;5054349;28;20467;-74
2022/07/14 12:57:19;;;;;;;2.42;0.63;;;23.60;81.10;;;;;;5054737;28;20040;-75
2022/07/14 12:59:46;;;;;;;4.90;0.70;;;23.10;80.90;;;;;;5046495;28;20044;-74
2022/07/14 13:02:21;;;;;;;3.47;0.80;;;22.70;85.10;;;;;;5038185;28;20494;-75
2022/07/14 13:04:58;;;;;;;8.05;0.82;;;22.40;92.20;;;;;;5061666;28;20072;-75